sensor_id;sensor_type;location;lat;lon;timestamp;temperature;humidity
11270;DHT22;5692;48.956;9.200;2024-02-23T01:27:55;7.80;99.90
11270;DHT22;5692;48.956;9.200;2024-02-23T17:59:37;8.20;99.90
11270;DHT22;5692;48.956;9.200;2024-02-23T18:02:03;8.20;99.90
11270;DHT22;5692;48.956;9.200;2024-02-23T18:04:29;8.00;99.90
11270;DHT22;5692;48.956;9.200;2024-02-23T18:06:56;8.00;99.90
11270;DHT22;5692;48.956;9.200;2024-02-23T18:09:22;8.10;99.90
11270;DHT22;5692;48.956;9.200;2024-02-23T18:11:49;8.00;99.90
11270;DHT22;5692;48.956;9.200;2024-02-23T19:47:14;6.90;99.90
11270;DHT22;5692;48.956;9.200;2024-02-23T19:49:39;6.90;99.90
11270;DHT22;5692;48.956;9.200;2024-02-23T19:52:05;6.80;99.90
11270;DHT22;5692;48.956;9.200;2024-02-23T19:54:35;6.70;99.90
11270;DHT22;5692;48.956;9.200;2024-02-23T19:57:01;6.70;99.90
11270;DHT22;5692;48.956;9.200;2024-02-23T19:59:27;6.70;99.90
11270;DHT22;5692;48.956;9.200;2024-02-23T20:01:53;6.60;99.90
11270;DHT22;5692;48.956;9.200;2024-02-23T20:04:19;6.60;99.90
11270;DHT22;5692;48.956;9.200;2024-02-23T20:06:45;6.50;99.90
11270;DHT22;5692;48.956;9.200;2024-02-23T20:09:14;6.50;99.90
11270;DHT22;5692;48.956;9.200;2024-02-23T20:11:39;6.60;99.90
11270;DHT22;5692;48.956;9.200;2024-02-23T20:14:06;6.30;99.90
11270;DHT22;5692;48.956;9.200;2024-02-23T20:16:31;6.50;99.90
11270;DHT22;5692;48.956;9.200;2024-02-23T20:18:57;6.50;99.90
11270;DHT22;5692;48.956;9.200;2024-02-23T20:21:23;6.30;99.90
11270;DHT22;5692;48.956;9.200;2024-02-23T20:23:48;6.60;99.90
11270;DHT22;5692;48.956;9.200;2024-02-23T21:41:54;5.50;99.90
11270;DHT22;5692;48.956;9.200;2024-02-23T21:44:20;5.50;99.90
11270;DHT22;5692;48.956;9.200;2024-02-23T21:46:46;5.30;99.90
11270;DHT22;5692;48.956;9.200;2024-02-23T21:56:30;5.00;99.90
11270;DHT22;5692;48.956;9.200;2024-02-23T22:18:34;4.90;99.90
11270;DHT22;5692;48.956;9.200;2024-02-23T22:20:59;4.80;99.90
11270;DHT22;5692;48.956;9.200;2024-02-23T22:23:26;4.80;99.90
11270;DHT22;5692;48.956;9.200;2024-02-23T22:25:52;4.70;99.90
11270;DHT22;5692;48.956;9.200;2024-02-23T22:28:18;4.80;99.90
11270;DHT22;5692;48.956;9.200;2024-02-23T22:33:10;4.60;99.90
11270;DHT22;5692;48.956;9.200;2024-02-23T22:35:35;4.70;99.90
11270;DHT22;5692;48.956;9.200;2024-02-23T23:14:36;4.40;99.90
11270;DHT22;5692;48.956;9.200;2024-02-23T23:17:02;4.40;99.90
11270;DHT22;5692;48.956;9.200;2024-02-23T23:19:28;4.50;99.90
11270;DHT22;5692;48.956;9.200;2024-02-23T23:21:53;4.50;99.90
11270;DHT22;5692;48.956;9.200;2024-02-23T23:24:19;4.40;99.90
11270;DHT22;5692;48.956;9.200;2024-02-23T23:29:11;4.40;99.90
11270;DHT22;5692;48.956;9.200;2024-02-23T23:31:38;4.40;99.90
11270;DHT22;5692;48.956;9.200;2024-02-23T23:34:03;4.30;99.90
11270;DHT22;5692;48.956;9.200;2024-02-23T23:36:29;4.10;99.90
11270;DHT22;5692;48.956;9.200;2024-02-23T23:38:55;4.20;99.90
11270;DHT22;5692;48.956;9.200;2024-02-23T23:48:39;4.10;99.90
11270;DHT22;5692;48.956;9.200;2024-02-23T23:55:56;3.80;99.90
